createdAt,value
2017-08-29T00:01:04.239Z,16.50
2017-08-29T00:03:33.056Z,16.50
2017-08-29T00:06:01.895Z,16.50
2017-08-29T00:08:30.711Z,16.40
2017-08-29T00:10:59.591Z,16.40
2017-08-29T00:13:30.079Z,16.40
2017-08-29T00:15:59.001Z,16.30
2017-08-29T00:18:27.802Z,16.30
2017-08-29T00:20:56.658Z,16.30
2017-08-29T00:23:25.460Z,16.20
2017-08-29T00:25:54.328Z,16.20
2017-08-29T00:28:23.140Z,16.20
2017-08-29T00:30:51.988Z,16.20
2017-08-29T00:33:21.324Z,16.10
2017-08-29T00:35:50.155Z,16.10
2017-08-29T00:38:18.967Z,16.10
2017-08-29T00:40:47.852Z,16.10
2017-08-29T00:43:15.964Z,16.10
2017-08-29T00:45:44.780Z,16.10
2017-08-29T00:48:13.591Z,15.90
2017-08-29T00:50:42.431Z,15.90
2017-08-29T00:53:11.000Z,15.90
2017-08-29T00:55:39.495Z,15.90
2017-08-29T00:58:08.309Z,15.80
2017-08-29T01:00:36.469Z,15.80
2017-08-29T01:03:05.838Z,15.80
2017-08-29T01:05:34.345Z,15.70
2017-08-29T01:08:03.716Z,15.70
2017-08-29T01:10:31.894Z,15.70
2017-08-29T01:13:00.009Z,15.70
2017-08-29T01:15:29.266Z,15.70
2017-08-29T01:17:57.725Z,15.70
2017-08-29T01:20:25.886Z,15.60
2017-08-29T01:22:54.344Z,15.60
2017-08-29T01:25:22.514Z,15.60
2017-08-29T01:27:51.025Z,15.50
2017-08-29T01:30:19.127Z,15.50
2017-08-29T01:32:47.630Z,15.50
2017-08-29T01:35:15.758Z,15.50
2017-08-29T01:37:44.001Z,15.50
2017-08-29T01:40:12.455Z,15.50
2017-08-29T01:42:40.631Z,15.40
2017-08-29T01:45:09.112Z,15.40
2017-08-29T01:47:37.284Z,15.40
2017-08-29T01:50:06.273Z,15.40
2017-08-29T01:52:35.137Z,15.30
2017-08-29T01:55:03.288Z,15.30
2017-08-29T01:57:32.580Z,15.30
2017-08-29T02:00:00.703Z,15.30
2017-08-29T02:02:29.218Z,15.30
2017-08-29T02:04:57.360Z,15.30
2017-08-29T02:07:26.247Z,15.30
2017-08-29T02:09:54.757Z,15.20
2017-08-29T02:12:22.920Z,15.20
2017-08-29T02:14:51.417Z,15.20
2017-08-29T02:17:20.696Z,15.20
2017-08-29T02:19:49.519Z,15.10
2017-08-29T02:22:18.389Z,15.10
2017-08-29T02:24:47.204Z,15.10
2017-08-29T02:27:16.060Z,15.10
2017-08-29T02:29:45.408Z,15.00
2017-08-29T02:32:14.081Z,15.00
2017-08-29T02:34:42.939Z,15.00
2017-08-29T02:37:11.763Z,15.00
2017-08-29T02:39:40.616Z,14.90
2017-08-29T02:42:09.440Z,15.00
2017-08-29T02:44:38.313Z,14.90
2017-08-29T02:47:07.119Z,14.90
2017-08-29T02:49:35.979Z,14.90
2017-08-29T02:52:04.782Z,14.90
2017-08-29T02:54:33.633Z,15.00
2017-08-29T02:57:02.487Z,14.90
2017-08-29T02:59:31.391Z,14.90
2017-08-29T03:02:00.224Z,14.90
2017-08-29T03:04:29.085Z,14.90
2017-08-29T03:06:57.918Z,14.90
2017-08-29T03:09:26.815Z,14.90
2017-08-29T03:11:55.618Z,14.80
2017-08-29T03:14:24.493Z,14.80
2017-08-29T03:16:54.241Z,14.70
2017-08-29T03:19:23.135Z,14.70
2017-08-29T03:21:51.780Z,14.70
2017-08-29T03:24:20.658Z,14.70
2017-08-29T03:26:49.466Z,14.50
2017-08-29T03:29:18.335Z,14.50
2017-08-29T03:31:47.146Z,14.30
2017-08-29T03:34:16.013Z,14.30
2017-08-29T03:36:44.868Z,14.20
2017-08-29T03:39:13.741Z,14.20
2017-08-29T03:41:42.611Z,14.20
2017-08-29T03:44:11.465Z,14.20
2017-08-29T03:46:40.273Z,14.10
2017-08-29T03:49:09.141Z,14.10
2017-08-29T03:51:37.957Z,14.00
2017-08-29T03:54:06.855Z,14.00
2017-08-29T03:56:35.694Z,14.10
2017-08-29T03:59:04.540Z,14.10
2017-08-29T04:01:34.315Z,14.10
2017-08-29T04:04:03.933Z,14.10
2017-08-29T04:06:32.781Z,14.10
2017-08-29T04:09:01.672Z,14.10
2017-08-29T04:11:30.493Z,14.10
2017-08-29T04:13:59.351Z,14.20
2017-08-29T04:16:28.174Z,14.20
2017-08-29T04:18:57.037Z,14.20
2017-08-29T04:21:25.841Z,14.30
2017-08-29T04:23:54.710Z,14.20
2017-08-29T04:26:23.723Z,14.20
2017-08-29T04:28:52.580Z,14.30
2017-08-29T04:31:21.419Z,14.30
2017-08-29T04:33:50.291Z,14.30
2017-08-29T04:36:19.109Z,14.20
2017-08-29T04:38:47.989Z,14.20
2017-08-29T04:41:17.436Z,14.20
2017-08-29T04:43:47.016Z,14.20
2017-08-29T04:46:15.843Z,14.20
2017-08-29T04:48:44.717Z,14.20
2017-08-29T04:51:13.519Z,14.20
2017-08-29T04:53:42.364Z,14.20
2017-08-29T04:56:11.181Z,14.20
2017-08-29T04:58:40.584Z,14.20
2017-08-29T05:01:08.702Z,14.30
2017-08-29T05:03:37.565Z,14.30
2017-08-29T05:06:06.409Z,14.30
2017-08-29T05:08:35.265Z,14.30
2017-08-29T05:11:04.072Z,14.40
2017-08-29T05:13:32.917Z,14.40
2017-08-29T05:16:01.734Z,14.40
2017-08-29T05:18:30.580Z,14.30
2017-08-29T05:20:59.404Z,14.40
2017-08-29T05:23:28.264Z,14.50
2017-08-29T05:25:57.067Z,14.50
2017-08-29T05:28:25.931Z,14.50
2017-08-29T05:30:54.761Z,14.50
2017-08-29T05:33:23.617Z,14.60
2017-08-29T05:35:52.439Z,14.60
2017-08-29T05:38:21.297Z,14.70
2017-08-29T05:40:50.138Z,14.80
2017-08-29T05:43:19.021Z,14.80
2017-08-29T05:45:48.692Z,14.90
2017-08-29T05:48:17.562Z,14.90
2017-08-29T05:50:46.406Z,15.00
2017-08-29T05:53:15.264Z,15.10
2017-08-29T05:55:44.842Z,15.10
2017-08-29T05:58:13.713Z,15.20
2017-08-29T06:00:42.753Z,15.30
2017-08-29T06:03:11.601Z,15.30
2017-08-29T06:05:40.462Z,15.40
2017-08-29T06:08:09.312Z,15.50
2017-08-29T06:10:38.179Z,15.70
2017-08-29T06:13:07.034Z,15.70
2017-08-29T06:15:35.844Z,15.90
2017-08-29T06:18:04.706Z,16.00
2017-08-29T06:20:33.168Z,16.10
2017-08-29T06:23:01.967Z,16.20
2017-08-29T06:25:30.823Z,16.40
2017-08-29T06:27:59.908Z,16.50
2017-08-29T06:30:28.757Z,16.70
2017-08-29T06:32:57.559Z,16.80
2017-08-29T06:35:26.413Z,17.00
2017-08-29T06:37:55.235Z,17.10
2017-08-29T06:40:24.076Z,17.20
2017-08-29T06:42:52.884Z,17.40
2017-08-29T06:45:22.581Z,17.50
2017-08-29T06:47:51.401Z,17.70
2017-08-29T06:50:20.261Z,17.90
2017-08-29T06:52:49.057Z,18.00
2017-08-29T06:55:18.056Z,18.20
2017-08-29T06:57:46.865Z,18.30
2017-08-29T07:00:15.045Z,18.40
2017-08-29T07:02:43.862Z,18.50
2017-08-29T07:05:12.717Z,18.70
2017-08-29T07:07:41.527Z,18.80
2017-08-29T07:10:10.392Z,18.90
2017-08-29T07:12:39.030Z,19.00
2017-08-29T07:15:07.696Z,19.10
2017-08-29T07:17:36.672Z,19.20
2017-08-29T07:20:07.562Z,19.30
2017-08-29T07:22:36.370Z,19.50
2017-08-29T07:25:04.995Z,19.60
2017-08-29T07:27:33.847Z,19.70
2017-08-29T07:30:02.652Z,19.80
2017-08-29T07:32:31.491Z,19.90
2017-08-29T07:35:00.300Z,20.10
2017-08-29T07:37:29.151Z,20.30
2017-08-29T07:39:57.980Z,20.40
2017-08-29T07:42:26.838Z,20.50
2017-08-29T07:44:55.657Z,20.50
2017-08-29T07:47:24.536Z,20.60
2017-08-29T07:49:52.875Z,20.80
2017-08-29T07:52:21.703Z,20.90
2017-08-29T07:54:50.330Z,21.10
2017-08-29T07:57:19.185Z,21.30
2017-08-29T07:59:47.992Z,21.40
2017-08-29T08:02:17.607Z,21.60
2017-08-29T08:04:46.416Z,21.70
2017-08-29T08:07:15.285Z,21.90
2017-08-29T08:09:44.105Z,22.00
2017-08-29T08:12:12.776Z,22.20
2017-08-29T08:14:41.417Z,22.30
2017-08-29T08:17:11.266Z,22.40
2017-08-29T08:19:40.094Z,22.50
2017-08-29T08:22:08.907Z,22.70
2017-08-29T08:24:37.719Z,22.80
2017-08-29T08:27:08.025Z,23.00
2017-08-29T08:29:36.849Z,23.10
2017-08-29T08:32:05.666Z,23.20
2017-08-29T08:34:34.326Z,23.40
2017-08-29T08:37:03.135Z,23.60
2017-08-29T08:39:32.003Z,23.70
2017-08-29T08:42:00.808Z,23.90
2017-08-29T08:44:29.681Z,24.00
2017-08-29T08:46:58.486Z,24.20
2017-08-29T08:49:27.342Z,24.40
2017-08-29T08:51:56.943Z,24.50
2017-08-29T08:54:25.813Z,24.70
2017-08-29T08:56:54.620Z,24.80
2017-08-29T08:59:23.844Z,25.10
2017-08-29T09:01:52.659Z,25.10
2017-08-29T09:04:21.500Z,25.10
2017-08-29T09:06:50.340Z,25.30
2017-08-29T09:09:19.223Z,25.50
2017-08-29T09:11:47.777Z,25.70
2017-08-29T09:14:16.878Z,25.80
2017-08-29T09:16:45.735Z,26.00
2017-08-29T09:19:14.324Z,26.20
2017-08-29T09:21:43.141Z,26.30
2017-08-29T09:24:11.741Z,26.60
2017-08-29T09:26:40.295Z,26.70
2017-08-29T09:29:08.890Z,26.80
2017-08-29T09:31:37.456Z,26.90
2017-08-29T09:34:06.049Z,27.00
2017-08-29T09:36:34.592Z,27.20
2017-08-29T09:39:03.190Z,27.20
2017-08-29T09:41:31.737Z,27.30
2017-08-29T09:44:00.317Z,27.60
2017-08-29T09:46:28.721Z,27.80
2017-08-29T09:48:57.261Z,27.90
2017-08-29T09:51:25.854Z,28.00
2017-08-29T09:53:54.423Z,28.10
2017-08-29T09:56:22.836Z,28.10
2017-08-29T09:58:51.194Z,28.20
2017-08-29T10:01:19.755Z,28.20
2017-08-29T10:03:48.287Z,28.40
2017-08-29T10:06:17.697Z,28.40
2017-08-29T10:08:46.248Z,28.60
2017-08-29T10:11:14.827Z,28.70
2017-08-29T10:13:44.503Z,28.90
2017-08-29T10:16:13.836Z,28.80
2017-08-29T10:18:42.392Z,28.80
2017-08-29T10:21:10.981Z,28.90
2017-08-29T10:23:39.568Z,29.00
2017-08-29T10:26:08.161Z,29.10
2017-08-29T10:28:36.700Z,29.20
2017-08-29T10:31:05.285Z,29.20
2017-08-29T10:33:33.838Z,29.30
2017-08-29T10:36:02.236Z,29.30
2017-08-29T10:38:30.785Z,29.30
2017-08-29T10:40:59.324Z,29.40
2017-08-29T10:43:27.610Z,29.30
2017-08-29T10:45:56.163Z,29.50
2017-08-29T10:48:24.756Z,29.50
2017-08-29T10:50:53.115Z,29.60
2017-08-29T10:53:21.699Z,29.70
2017-08-29T10:55:50.241Z,29.50
2017-08-29T10:58:18.838Z,29.60
2017-08-29T11:00:47.467Z,29.60
2017-08-29T11:03:16.773Z,29.70
2017-08-29T11:05:45.332Z,29.80
2017-08-29T11:08:13.930Z,29.90
2017-08-29T11:10:42.450Z,29.90
2017-08-29T11:13:11.061Z,30.00
2017-08-29T11:15:39.615Z,30.00
2017-08-29T11:18:08.532Z,29.90
2017-08-29T11:20:36.901Z,29.80
2017-08-29T11:23:05.290Z,30.00
2017-08-29T11:25:33.648Z,30.00
2017-08-29T11:28:02.048Z,29.90
2017-08-29T11:30:30.421Z,30.00
2017-08-29T11:32:58.811Z,30.00
2017-08-29T11:35:27.188Z,30.10
2017-08-29T11:37:55.589Z,30.10
2017-08-29T11:40:23.957Z,29.90
2017-08-29T11:42:52.328Z,30.10
2017-08-29T11:45:20.742Z,30.20
2017-08-29T11:47:49.109Z,30.30
2017-08-29T11:50:18.244Z,30.30
2017-08-29T11:52:46.591Z,30.30
2017-08-29T11:55:15.008Z,30.40
2017-08-29T11:57:43.351Z,30.50
2017-08-29T12:00:11.753Z,30.40
2017-08-29T12:02:40.111Z,30.30
2017-08-29T12:05:08.711Z,30.30
2017-08-29T12:07:37.085Z,30.30
2017-08-29T12:10:06.213Z,30.40
2017-08-29T12:12:34.625Z,30.40
2017-08-29T12:15:03.415Z,30.40
2017-08-29T12:17:32.284Z,30.40
2017-08-29T12:20:00.885Z,30.30
2017-08-29T12:22:29.419Z,30.40
2017-08-29T12:24:57.996Z,30.60
2017-08-29T12:27:26.541Z,30.60
2017-08-29T12:29:55.125Z,30.70
2017-08-29T12:32:23.716Z,30.80
2017-08-29T12:34:53.089Z,30.90
2017-08-29T12:37:21.649Z,30.80
2017-08-29T12:39:51.024Z,30.80
2017-08-29T12:42:19.581Z,30.90
2017-08-29T12:44:47.959Z,31.00
2017-08-29T12:47:16.394Z,31.00
2017-08-29T12:49:44.946Z,31.00
2017-08-29T12:52:13.546Z,31.00
2017-08-29T12:54:43.079Z,31.10
2017-08-29T12:57:11.681Z,31.00
2017-08-29T12:59:40.229Z,31.00
2017-08-29T13:02:08.821Z,31.10
2017-08-29T13:04:37.177Z,31.20
2017-08-29T13:07:05.778Z,31.10
2017-08-29T13:09:34.320Z,30.90
2017-08-29T13:12:03.533Z,30.90
2017-08-29T13:14:31.906Z,30.90
2017-08-29T13:17:00.501Z,31.00
2017-08-29T13:19:29.060Z,31.10
2017-08-29T13:21:57.667Z,31.20
2017-08-29T13:24:26.038Z,31.10
2017-08-29T13:26:55.203Z,31.20
2017-08-29T13:29:23.765Z,31.20
2017-08-29T13:31:52.361Z,31.10
2017-08-29T13:34:20.929Z,31.10
2017-08-29T13:36:49.504Z,31.20
2017-08-29T13:39:18.115Z,31.30
2017-08-29T13:41:46.712Z,31.30
2017-08-29T13:44:15.108Z,31.30
2017-08-29T13:46:43.648Z,31.30
2017-08-29T13:49:12.250Z,31.20
2017-08-29T13:51:40.817Z,31.10
2017-08-29T13:54:09.410Z,31.20
2017-08-29T13:56:37.957Z,31.40
2017-08-29T13:59:06.514Z,31.40
2017-08-29T14:01:35.061Z,31.50
2017-08-29T14:04:03.510Z,31.60
2017-08-29T14:06:32.064Z,31.60
2017-08-29T14:09:00.635Z,31.60
2017-08-29T14:11:29.223Z,31.70
2017-08-29T14:13:57.823Z,31.70
2017-08-29T14:16:26.384Z,31.70
2017-08-29T14:18:54.986Z,31.60
2017-08-29T14:21:23.532Z,31.70
2017-08-29T14:23:52.138Z,31.70
2017-08-29T14:26:20.700Z,31.80
2017-08-29T14:28:52.481Z,31.80
2017-08-29T14:31:21.033Z,31.70
2017-08-29T14:33:49.605Z,31.70
2017-08-29T14:36:18.144Z,31.70
2017-08-29T14:38:46.760Z,31.70
2017-08-29T14:41:15.303Z,31.70
2017-08-29T14:43:43.903Z,31.60
2017-08-29T14:46:11.754Z,31.70
2017-08-29T14:48:51.449Z,31.90
2017-08-29T14:51:19.980Z,32.00
2017-08-29T14:53:48.535Z,31.90
2017-08-29T14:56:17.151Z,31.80
2017-08-29T14:58:45.709Z,31.70
2017-08-29T15:01:13.950Z,31.80
2017-08-29T15:03:42.508Z,31.80
2017-08-29T15:06:11.100Z,31.90
2017-08-29T15:08:39.641Z,31.80
2017-08-29T15:11:08.232Z,31.70
2017-08-29T15:13:36.777Z,31.60
2017-08-29T15:16:05.359Z,31.50
2017-08-29T15:18:33.897Z,31.60
2017-08-29T15:21:02.511Z,31.50
2017-08-29T15:23:31.085Z,31.40
2017-08-29T15:25:59.523Z,31.50
2017-08-29T15:28:28.078Z,31.50
2017-08-29T15:30:56.671Z,31.50
2017-08-29T15:33:25.219Z,31.60
2017-08-29T15:35:53.810Z,31.50
2017-08-29T15:38:22.366Z,31.50
2017-08-29T15:40:50.949Z,31.50
2017-08-29T15:43:19.332Z,31.50
2017-08-29T15:45:48.227Z,31.50
2017-08-29T15:48:16.815Z,31.40
2017-08-29T15:50:45.359Z,31.20
2017-08-29T15:53:13.959Z,31.10
2017-08-29T15:55:42.499Z,31.10
2017-08-29T15:58:11.413Z,31.00
2017-08-29T16:00:39.703Z,31.00
2017-08-29T16:03:08.279Z,31.10
2017-08-29T16:05:37.608Z,31.00
2017-08-29T16:08:07.114Z,30.80
2017-08-29T16:10:35.718Z,30.60
2017-08-29T16:13:06.106Z,30.40
2017-08-29T16:15:34.653Z,30.30
2017-08-29T16:18:03.252Z,30.30
2017-08-29T16:20:31.828Z,30.20
2017-08-29T16:23:00.415Z,30.00
2017-08-29T16:25:28.977Z,29.90
2017-08-29T16:27:57.573Z,29.70
2017-08-29T16:30:26.120Z,29.50
2017-08-29T16:32:54.743Z,29.40
2017-08-29T16:35:23.312Z,29.20
2017-08-29T16:37:51.897Z,29.10
2017-08-29T16:40:20.431Z,29.00
2017-08-29T16:42:49.012Z,28.80
2017-08-29T16:45:17.558Z,28.80
2017-08-29T16:47:46.173Z,28.70
2017-08-29T16:50:14.541Z,28.60
2017-08-29T16:52:43.093Z,28.50
2017-08-29T16:55:11.661Z,28.40
2017-08-29T16:57:40.221Z,28.30
2017-08-29T17:00:08.844Z,28.20
2017-08-29T17:02:37.380Z,28.10
2017-08-29T17:05:06.204Z,28.00
2017-08-29T17:07:34.765Z,27.90
2017-08-29T17:10:03.335Z,27.80
2017-08-29T17:12:31.862Z,27.80
2017-08-29T17:15:00.446Z,27.70
2017-08-29T17:17:29.028Z,27.60
2017-08-29T17:19:57.625Z,27.60
2017-08-29T17:22:26.184Z,27.50
2017-08-29T17:24:54.777Z,27.40
2017-08-29T17:27:23.353Z,27.40
2017-08-29T17:29:51.956Z,27.30
2017-08-29T17:32:20.513Z,27.20
2017-08-29T17:34:49.119Z,27.20
2017-08-29T17:37:17.672Z,27.00
2017-08-29T17:39:46.273Z,27.00
2017-08-29T17:42:14.832Z,26.90
2017-08-29T17:44:44.195Z,26.80
2017-08-29T17:47:13.536Z,26.80
2017-08-29T17:49:42.140Z,26.70
2017-08-29T17:52:10.707Z,26.60
2017-08-29T17:54:39.291Z,26.60
2017-08-29T17:57:07.842Z,26.50
2017-08-29T17:59:36.435Z,26.40
2017-08-29T18:02:04.991Z,26.40
2017-08-29T18:04:33.187Z,26.30
2017-08-29T18:07:01.476Z,26.20
2017-08-29T18:09:30.040Z,26.10
2017-08-29T18:11:58.661Z,26.10
2017-08-29T18:14:27.245Z,26.00
2017-08-29T18:16:55.843Z,26.00
2017-08-29T18:19:24.494Z,25.90
2017-08-29T18:21:54.022Z,25.80
2017-08-29T18:24:22.721Z,25.70
2017-08-29T18:26:51.315Z,25.60
2017-08-29T18:29:21.448Z,25.50
2017-08-29T18:31:49.749Z,25.50
2017-08-29T18:37:01.646Z,25.30
2017-08-29T18:39:30.199Z,25.30
2017-08-29T18:42:00.325Z,25.20
2017-08-29T18:44:28.915Z,25.10
2017-08-29T18:46:58.379Z,25.10
2017-08-29T18:49:26.957Z,24.90
2017-08-29T18:51:58.841Z,24.90
2017-08-29T18:54:28.262Z,24.80
2017-08-29T18:56:56.818Z,24.70
2017-08-29T18:59:26.133Z,24.70
2017-08-29T19:01:55.675Z,24.60
2017-08-29T19:06:56.476Z,24.60
2017-08-29T19:09:24.735Z,24.50
2017-08-29T19:11:54.572Z,24.50
2017-08-29T19:14:23.253Z,24.40
2017-08-29T19:16:52.489Z,24.40
2017-08-29T19:19:22.492Z,24.30
2017-08-29T19:21:53.174Z,24.30
2017-08-29T19:24:22.565Z,24.30
2017-08-29T19:26:51.382Z,24.20
2017-08-29T19:29:20.270Z,24.20
2017-08-29T19:31:49.577Z,24.10
2017-08-29T19:34:18.159Z,24.00
2017-08-29T19:36:46.722Z,24.00
2017-08-29T19:39:14.881Z,23.90
2017-08-29T19:41:43.727Z,23.90
2017-08-29T19:44:12.601Z,23.80
2017-08-29T19:46:41.416Z,23.70
2017-08-29T19:49:10.268Z,23.70
2017-08-29T19:51:39.089Z,23.60
2017-08-29T19:54:07.947Z,23.50
2017-08-29T19:56:36.769Z,23.50
2017-08-29T19:59:06.050Z,23.50
2017-08-29T20:01:34.591Z,23.50
2017-08-29T20:04:03.442Z,23.40
2017-08-29T20:06:33.328Z,23.30
2017-08-29T20:09:01.899Z,23.20
2017-08-29T20:11:31.264Z,23.20
2017-08-29T20:14:00.089Z,23.10
2017-08-29T20:16:28.966Z,23.10
2017-08-29T20:18:57.776Z,23.10
2017-08-29T20:21:26.650Z,23.10
2017-08-29T20:23:55.564Z,23.00
2017-08-29T20:26:24.430Z,23.00
2017-08-29T20:28:53.245Z,23.00
2017-08-29T20:31:22.659Z,23.00
2017-08-29T20:33:51.743Z,22.90
2017-08-29T20:36:20.854Z,22.80
2017-08-29T20:38:49.506Z,22.80
2017-08-29T20:41:18.344Z,22.80
2017-08-29T20:43:49.040Z,22.70
2017-08-29T20:46:17.880Z,22.70
2017-08-29T20:48:46.733Z,22.70
2017-08-29T20:51:16.024Z,22.60
2017-08-29T20:53:44.828Z,22.50
2017-08-29T20:56:13.677Z,22.50
2017-08-29T20:58:42.484Z,22.40
2017-08-29T21:01:11.343Z,22.40
2017-08-29T21:03:39.965Z,22.30
2017-08-29T21:06:08.789Z,22.30
2017-08-29T21:08:37.651Z,22.30
2017-08-29T21:11:06.464Z,22.40
2017-08-29T21:13:35.304Z,22.30
2017-08-29T21:16:04.116Z,22.30
2017-08-29T21:18:32.977Z,22.20
2017-08-29T21:21:01.788Z,22.20
2017-08-29T21:23:31.407Z,22.10
2017-08-29T21:26:00.290Z,22.10
2017-08-29T21:28:29.157Z,22.00
2017-08-29T21:30:58.712Z,22.00
2017-08-29T21:33:29.563Z,21.90
2017-08-29T21:35:58.430Z,21.90
2017-08-29T21:38:28.469Z,21.90
2017-08-29T21:40:59.798Z,21.80
2017-08-29T21:43:28.616Z,21.80
2017-08-29T21:45:57.475Z,21.80
2017-08-29T21:48:26.351Z,21.70
2017-08-29T21:51:08.223Z,21.70
2017-08-29T21:53:37.099Z,21.70
2017-08-29T21:56:06.868Z,21.60
2017-08-29T21:58:37.434Z,21.60
2017-08-29T22:01:06.316Z,21.50
2017-08-29T22:03:35.136Z,21.50
2017-08-29T22:06:03.982Z,21.40
2017-08-29T22:08:32.807Z,21.40
2017-08-29T22:11:01.629Z,21.40
2017-08-29T22:13:30.471Z,21.30
2017-08-29T22:15:59.268Z,21.30
2017-08-29T22:18:28.137Z,21.30
2017-08-29T22:20:56.945Z,21.30
2017-08-29T22:23:25.810Z,21.20
2017-08-29T22:25:54.622Z,21.20
2017-08-29T22:28:23.497Z,21.10
2017-08-29T22:30:52.309Z,21.10
2017-08-29T22:33:21.183Z,21.10
2017-08-29T22:35:50.001Z,21.00
2017-08-29T22:38:18.826Z,21.00
2017-08-29T22:40:47.391Z,21.00
2017-08-29T22:43:16.207Z,21.00
2017-08-29T22:45:45.977Z,21.00
2017-08-29T22:48:14.788Z,20.90
2017-08-29T22:50:43.624Z,20.90
2017-08-29T22:53:12.437Z,20.90
2017-08-29T22:55:41.867Z,20.90
2017-08-29T22:58:10.690Z,20.90
2017-08-29T23:00:39.554Z,20.80
2017-08-29T23:03:08.381Z,20.80
2017-08-29T23:05:36.900Z,20.80
2017-08-29T23:08:05.437Z,20.70
2017-08-29T23:10:34.235Z,20.60
2017-08-29T23:13:03.626Z,20.60
2017-08-29T23:15:32.991Z,20.40
2017-08-29T23:18:01.827Z,20.40
2017-08-29T23:20:30.652Z,20.40
2017-08-29T23:22:59.536Z,20.40
2017-08-29T23:25:28.331Z,20.30
2017-08-29T23:27:57.157Z,20.30
2017-08-29T23:30:25.996Z,20.30
2017-08-29T23:32:54.804Z,20.30
2017-08-29T23:35:23.644Z,20.20
2017-08-29T23:37:52.481Z,20.00
2017-08-29T23:40:21.323Z,20.00
2017-08-29T23:42:50.184Z,20.00
2017-08-29T23:45:19.027Z,20.00
2017-08-29T23:47:47.843Z,20.00
2017-08-29T23:50:17.579Z,19.90
2017-08-29T23:52:46.439Z,19.90
2017-08-29T23:55:15.261Z,19.90
2017-08-29T23:57:44.137Z,19.90
